sensor_id;sensor_type;location;lat;lon;timestamp;pressure;altitude;pressure_sealevel;temperature;humidity
57376;BME280;44805;45.048;5.062;2023-04-22T00:04:51;99184.66;;;13.33;70.02
57376;BME280;44805;45.048;5.062;2023-04-22T00:07:16;99178.53;;;13.33;70.47
57376;BME280;44805;45.048;5.062;2023-04-22T00:09:42;99182.88;;;13.25;70.20
57376;BME280;44805;45.048;5.062;2023-04-22T00:12:08;99179.47;;;13.40;69.14
57376;BME280;44805;45.048;5.062;2023-04-22T00:14:35;99167.94;;;13.33;69.87
57376;BME280;44805;45.048;5.062;2023-04-22T00:17:00;99171.66;;;13.23;70.50
57376;BME280;44805;45.048;5.062;2023-04-22T00:19:26;99175.66;;;13.19;69.95
57376;BME280;44805;45.048;5.062;2023-04-22T00:21:54;99167.44;;;13.14;71.04
57376;BME280;44805;45.048;5.062;2023-04-22T00:24:19;99172.38;;;13.17;70.42
57376;BME280;44805;45.048;5.062;2023-04-22T00:26:44;99169.22;;;12.99;71.43
57376;BME280;44805;45.048;5.062;2023-04-22T00:29:10;99175.38;;;13.14;70.44
57376;BME280;44805;45.048;5.062;2023-04-22T00:31:35;99166.47;;;13.15;71.15
57376;BME280;44805;45.048;5.062;2023-04-22T00:34:00;99157.16;;;13.19;70.94
57376;BME280;44805;45.048;5.062;2023-04-22T00:36:26;99170.16;;;13.06;71.42
57376;BME280;44805;45.048;5.062;2023-04-22T00:38:54;99161.41;;;13.06;70.63
57376;BME280;44805;45.048;5.062;2023-04-22T00:41:19;99162.16;;;13.14;70.40
57376;BME280;44805;45.048;5.062;2023-04-22T00:43:45;99155.03;;;13.15;70.83
57376;BME280;44805;45.048;5.062;2023-04-22T00:46:10;99162.22;;;13.06;70.84
57376;BME280;44805;45.048;5.062;2023-04-22T00:48:36;99163.16;;;13.13;70.21
57376;BME280;44805;45.048;5.062;2023-04-22T00:51:01;99161.88;;;13.09;70.45
57376;BME280;44805;45.048;5.062;2023-04-22T00:53:27;99159.88;;;13.11;70.42
57376;BME280;44805;45.048;5.062;2023-04-22T00:55:52;99158.38;;;12.94;71.30
57376;BME280;44805;45.048;5.062;2023-04-22T00:58:18;99158.94;;;13.04;70.48
57376;BME280;44805;45.048;5.062;2023-04-22T01:00:45;99161.66;;;12.96;70.83
57376;BME280;44805;45.048;5.062;2023-04-22T01:03:10;99163.53;;;12.87;72.29
57376;BME280;44805;45.048;5.062;2023-04-22T01:05:36;99156.13;;;13.06;71.34
57376;BME280;44805;45.048;5.062;2023-04-22T01:08:01;99152.34;;;13.00;71.49
57376;BME280;44805;45.048;5.062;2023-04-22T01:10:27;99146.91;;;13.01;70.66
57376;BME280;44805;45.048;5.062;2023-04-22T01:12:53;99152.72;;;12.97;71.34
57376;BME280;44805;45.048;5.062;2023-04-22T01:15:18;99156.66;;;13.01;70.64
57376;BME280;44805;45.048;5.062;2023-04-22T01:17:44;99154.72;;;12.95;70.90
57376;BME280;44805;45.048;5.062;2023-04-22T01:20:09;99156.38;;;12.96;71.64
57376;BME280;44805;45.048;5.062;2023-04-22T01:22:41;99165.00;;;12.90;71.64
57376;BME280;44805;45.048;5.062;2023-04-22T01:25:08;99153.50;;;12.82;71.77
57376;BME280;44805;45.048;5.062;2023-04-22T01:27:35;99158.66;;;12.99;70.92
57376;BME280;44805;45.048;5.062;2023-04-22T01:30:03;99162.22;;;13.06;70.58
57376;BME280;44805;45.048;5.062;2023-04-22T01:32:29;99164.94;;;12.98;71.74
57376;BME280;44805;45.048;5.062;2023-04-22T01:34:55;99158.44;;;12.86;71.31
57376;BME280;44805;45.048;5.062;2023-04-22T01:37:20;99162.78;;;12.78;71.36
57376;BME280;44805;45.048;5.062;2023-04-22T01:39:46;99170.00;;;12.85;71.67
57376;BME280;44805;45.048;5.062;2023-04-22T01:42:11;99163.22;;;12.67;72.91
57376;BME280;44805;45.048;5.062;2023-04-22T01:44:37;99155.56;;;12.72;71.52
57376;BME280;44805;45.048;5.062;2023-04-22T01:49:48;99159.09;;;12.65;72.68
57376;BME280;44805;45.048;5.062;2023-04-22T01:52:13;99151.63;;;12.68;72.48
57376;BME280;44805;45.048;5.062;2023-04-22T01:54:38;99155.22;;;12.75;72.81
57376;BME280;44805;45.048;5.062;2023-04-22T01:57:08;99162.13;;;12.53;73.43
57376;BME280;44805;45.048;5.062;2023-04-22T01:59:35;99165.28;;;12.49;73.80
57376;BME280;44805;45.048;5.062;2023-04-22T02:02:00;99163.38;;;12.66;73.52
57376;BME280;44805;45.048;5.062;2023-04-22T02:04:26;99162.72;;;12.64;72.78
57376;BME280;44805;45.048;5.062;2023-04-22T02:06:51;99165.13;;;12.50;73.34
57376;BME280;44805;45.048;5.062;2023-04-22T02:09:16;99157.34;;;12.57;73.12
57376;BME280;44805;45.048;5.062;2023-04-22T02:11:42;99144.53;;;12.46;74.46
57376;BME280;44805;45.048;5.062;2023-04-22T02:14:07;99155.59;;;12.41;73.96
57376;BME280;44805;45.048;5.062;2023-04-22T02:23:07;99159.69;;;12.52;73.28
57376;BME280;44805;45.048;5.062;2023-04-22T02:25:32;99151.19;;;12.33;73.79
57376;BME280;44805;45.048;5.062;2023-04-22T02:27:58;99147.69;;;12.41;74.50
57376;BME280;44805;45.048;5.062;2023-04-22T02:30:23;99140.91;;;12.47;74.01
57376;BME280;44805;45.048;5.062;2023-04-22T02:35:33;99144.88;;;12.43;74.14
57376;BME280;44805;45.048;5.062;2023-04-22T02:37:58;99147.16;;;12.46;74.27
57376;BME280;44805;45.048;5.062;2023-04-22T02:40:23;99139.31;;;12.37;73.86
57376;BME280;44805;45.048;5.062;2023-04-22T02:42:49;99146.88;;;12.41;73.72
57376;BME280;44805;45.048;5.062;2023-04-22T02:45:14;99133.97;;;12.46;73.77
57376;BME280;44805;45.048;5.062;2023-04-22T02:47:40;99134.66;;;12.40;74.56
57376;BME280;44805;45.048;5.062;2023-04-22T02:50:05;99132.38;;;12.36;74.73
57376;BME280;44805;45.048;5.062;2023-04-22T02:52:32;99145.03;;;12.41;73.91
57376;BME280;44805;45.048;5.062;2023-04-22T02:54:57;99138.78;;;12.42;74.13
57376;BME280;44805;45.048;5.062;2023-04-22T02:57:22;99134.97;;;12.45;73.40
57376;BME280;44805;45.048;5.062;2023-04-22T02:59:48;99134.97;;;12.45;73.00
57376;BME280;44805;45.048;5.062;2023-04-22T03:02:13;99140.91;;;12.47;72.82
57376;BME280;44805;45.048;5.062;2023-04-22T03:04:38;99129.69;;;12.45;73.17
57376;BME280;44805;45.048;5.062;2023-04-22T03:07:04;99140.84;;;12.55;72.98
57376;BME280;44805;45.048;5.062;2023-04-22T03:09:32;99146.94;;;12.55;73.13
57376;BME280;44805;45.048;5.062;2023-04-22T03:11:57;99141.19;;;12.52;72.66
57376;BME280;44805;45.048;5.062;2023-04-22T03:14:22;99134.56;;;12.56;71.76
57376;BME280;44805;45.048;5.062;2023-04-22T03:19:51;99152.22;;;12.55;71.98
57376;BME280;44805;45.048;5.062;2023-04-22T03:22:19;99136.38;;;12.55;71.78
57376;BME280;44805;45.048;5.062;2023-04-22T03:24:44;99141.94;;;12.60;71.03
57376;BME280;44805;45.048;5.062;2023-04-22T03:27:10;99146.78;;;12.57;71.18
57376;BME280;44805;45.048;5.062;2023-04-22T03:29:35;99144.47;;;12.54;70.61
57376;BME280;44805;45.048;5.062;2023-04-22T03:32:02;99138.13;;;12.63;70.45
57376;BME280;44805;45.048;5.062;2023-04-22T03:34:28;99141.19;;;12.52;70.64
57376;BME280;44805;45.048;5.062;2023-04-22T03:36:53;99138.44;;;12.68;69.70
57376;BME280;44805;45.048;5.062;2023-04-22T03:39:18;99133.00;;;12.85;68.85
57376;BME280;44805;45.048;5.062;2023-04-22T03:41:44;99130.91;;;12.80;69.85
57376;BME280;44805;45.048;5.062;2023-04-22T03:44:09;99126.91;;;12.84;68.38
57376;BME280;44805;45.048;5.062;2023-04-22T03:46:35;99127.38;;;12.88;68.39
57376;BME280;44805;45.048;5.062;2023-04-22T03:49:00;99129.59;;;12.99;67.92
57376;BME280;44805;45.048;5.062;2023-04-22T03:51:25;99135.69;;;12.99;67.43
57376;BME280;44805;45.048;5.062;2023-04-22T03:53:51;99146.09;;;13.01;66.52
57376;BME280;44805;45.048;5.062;2023-04-22T03:56:17;99132.59;;;12.96;66.40
57376;BME280;44805;45.048;5.062;2023-04-22T03:58:43;99127.22;;;13.04;65.79
57376;BME280;44805;45.048;5.062;2023-04-22T04:01:08;99134.34;;;13.03;65.87
57376;BME280;44805;45.048;5.062;2023-04-22T04:03:34;99131.97;;;13.09;65.29
57376;BME280;44805;45.048;5.062;2023-04-22T04:05:59;99130.53;;;13.06;65.41
57376;BME280;44805;45.048;5.062;2023-04-22T04:08:25;99134.69;;;13.00;65.50
57376;BME280;44805;45.048;5.062;2023-04-22T04:10:50;99127.75;;;12.99;65.40
57376;BME280;44805;45.048;5.062;2023-04-22T04:13:16;99129.22;;;13.02;65.03
57376;BME280;44805;45.048;5.062;2023-04-22T04:15:41;99121.38;;;12.94;66.04
57376;BME280;44805;45.048;5.062;2023-04-22T04:21:09;99123.00;;;12.95;65.82
57376;BME280;44805;45.048;5.062;2023-04-22T04:23:35;99134.66;;;12.86;65.70
57376;BME280;44805;45.048;5.062;2023-04-22T04:26:01;99120.50;;;12.78;66.51
57376;BME280;44805;45.048;5.062;2023-04-22T04:28:30;99124.78;;;12.79;66.13
57376;BME280;44805;45.048;5.062;2023-04-22T04:30:57;99119.88;;;12.76;66.15
57376;BME280;44805;45.048;5.062;2023-04-22T04:33:45;99121.16;;;12.80;65.91
57376;BME280;44805;45.048;5.062;2023-04-22T04:36:13;99119.44;;;12.50;66.52
57376;BME280;44805;45.048;5.062;2023-04-22T04:38:39;99127.13;;;12.74;66.61
57376;BME280;44805;45.048;5.062;2023-04-22T04:41:04;99113.66;;;12.69;66.44
57376;BME280;44805;45.048;5.062;2023-04-22T04:43:32;99131.31;;;12.69;66.97
57376;BME280;44805;45.048;5.062;2023-04-22T04:45:57;99129.09;;;12.57;67.39
57376;BME280;44805;45.048;5.062;2023-04-22T04:48:23;99125.38;;;12.67;67.20
57376;BME280;44805;45.048;5.062;2023-04-22T04:50:49;99124.94;;;12.63;67.41
57376;BME280;44805;45.048;5.062;2023-04-22T04:53:17;99127.72;;;12.62;66.47
57376;BME280;44805;45.048;5.062;2023-04-22T04:55:43;99137.09;;;12.72;65.96
57376;BME280;44805;45.048;5.062;2023-04-22T04:58:08;99143.84;;;12.52;67.17
57376;BME280;44805;45.048;5.062;2023-04-22T05:00:33;99146.34;;;12.68;65.99
57376;BME280;44805;45.048;5.062;2023-04-22T05:02:59;99136.44;;;12.70;66.07
57376;BME280;44805;45.048;5.062;2023-04-22T05:05:24;99137.47;;;12.84;65.65
57376;BME280;44805;45.048;5.062;2023-04-22T05:07:49;99130.34;;;12.85;65.72
57376;BME280;44805;45.048;5.062;2023-04-22T05:10:15;99153.22;;;12.77;65.59
57376;BME280;44805;45.048;5.062;2023-04-22T05:12:41;99154.84;;;12.78;64.92
57376;BME280;44805;45.048;5.062;2023-04-22T05:15:08;99173.34;;;12.78;65.70
57376;BME280;44805;45.048;5.062;2023-04-22T05:20:36;99156.53;;;12.94;64.92
57376;BME280;44805;45.048;5.062;2023-04-22T05:23:01;99168.94;;;12.94;65.95
57376;BME280;44805;45.048;5.062;2023-04-22T05:25:27;99171.34;;;13.03;65.56
57376;BME280;44805;45.048;5.062;2023-04-22T05:27:52;99170.16;;;13.06;65.12
57376;BME280;44805;45.048;5.062;2023-04-22T05:30:20;99166.78;;;13.12;64.99
57376;BME280;44805;45.048;5.062;2023-04-22T05:32:58;99186.03;;;13.06;64.14
57376;BME280;44805;45.048;5.062;2023-04-22T05:35:23;99183.28;;;13.14;64.07
57376;BME280;44805;45.048;5.062;2023-04-22T05:37:48;99175.72;;;13.11;63.72
57376;BME280;44805;45.048;5.062;2023-04-22T05:40:14;99186.22;;;13.19;63.94
57376;BME280;44805;45.048;5.062;2023-04-22T05:42:39;99185.00;;;13.30;63.39
57376;BME280;44805;45.048;5.062;2023-04-22T05:45:05;99197.78;;;13.41;63.33
57376;BME280;44805;45.048;5.062;2023-04-22T05:47:30;99195.44;;;13.46;61.75
57376;BME280;44805;45.048;5.062;2023-04-22T05:49:56;99193.50;;;13.55;61.28
57376;BME280;44805;45.048;5.062;2023-04-22T05:52:21;99192.16;;;13.44;61.75
57376;BME280;44805;45.048;5.062;2023-04-22T05:54:46;99188.22;;;13.55;61.76
57376;BME280;44805;45.048;5.062;2023-04-22T05:57:16;99192.69;;;13.40;61.26
57376;BME280;44805;45.048;5.062;2023-04-22T05:59:41;99198.34;;;13.52;60.07
57376;BME280;44805;45.048;5.062;2023-04-22T06:02:28;99206.75;;;13.55;58.99
57376;BME280;44805;45.048;5.062;2023-04-22T06:04:56;99211.50;;;13.60;60.29
57376;BME280;44805;45.048;5.062;2023-04-22T06:07:21;99215.22;;;13.65;59.78
57376;BME280;44805;45.048;5.062;2023-04-22T06:09:47;99214.97;;;13.75;58.53
57376;BME280;44805;45.048;5.062;2023-04-22T06:12:13;99210.13;;;13.79;58.92
57376;BME280;44805;45.048;5.062;2023-04-22T06:14:41;99213.34;;;13.74;57.63
57376;BME280;44805;45.048;5.062;2023-04-22T06:17:18;99225.75;;;13.88;57.68
57376;BME280;44805;45.048;5.062;2023-04-22T06:19:45;99228.47;;;13.80;57.76
57376;BME280;44805;45.048;5.062;2023-04-22T06:22:11;99240.44;;;13.91;58.76
57376;BME280;44805;45.048;5.062;2023-04-22T06:24:36;99240.13;;;13.71;59.03
57376;BME280;44805;45.048;5.062;2023-04-22T06:29:37;99236.88;;;14.14;58.41
57376;BME280;44805;45.048;5.062;2023-04-22T06:32:11;99239.88;;;14.10;57.52
57376;BME280;44805;45.048;5.062;2023-04-22T06:37:43;99233.31;;;14.21;57.81
57376;BME280;44805;45.048;5.062;2023-04-22T06:40:15;99239.41;;;14.22;57.77
57376;BME280;44805;45.048;5.062;2023-04-22T07:21:22;99294.00;;;14.67;56.71
57376;BME280;44805;45.048;5.062;2023-04-22T07:23:47;99298.41;;;14.60;56.50
57376;BME280;44805;45.048;5.062;2023-04-22T07:26:13;99295.72;;;14.75;58.46
57376;BME280;44805;45.048;5.062;2023-04-22T07:28:38;99293.50;;;14.93;57.08
57376;BME280;44805;45.048;5.062;2023-04-22T07:31:03;99292.00;;;14.69;57.21
57376;BME280;44805;45.048;5.062;2023-04-22T07:33:29;99294.81;;;14.68;57.12
57376;BME280;44805;45.048;5.062;2023-04-22T07:38:24;99305.06;;;14.71;57.09
57376;BME280;44805;45.048;5.062;2023-04-22T07:40:50;99305.69;;;14.73;57.56
57376;BME280;44805;45.048;5.062;2023-04-22T07:43:16;99302.50;;;14.63;56.62
57376;BME280;44805;45.048;5.062;2023-04-22T07:45:41;99305.66;;;14.88;56.31
57376;BME280;44805;45.048;5.062;2023-04-22T07:48:07;99306.81;;;15.00;56.02
57376;BME280;44805;45.048;5.062;2023-04-22T07:53:06;99306.28;;;14.90;56.32
57376;BME280;44805;45.048;5.062;2023-04-22T07:55:32;99306.88;;;15.28;56.71
57376;BME280;44805;45.048;5.062;2023-04-22T07:57:57;99306.16;;;15.34;58.17
57376;BME280;44805;45.048;5.062;2023-04-22T08:00:25;99298.28;;;15.26;56.26
57376;BME280;44805;45.048;5.062;2023-04-22T08:02:51;99298.75;;;15.30;57.92
57376;BME280;44805;45.048;5.062;2023-04-22T08:07:52;99308.41;;;15.80;57.24
57376;BME280;44805;45.048;5.062;2023-04-22T08:12:49;99300.75;;;15.99;54.23
57376;BME280;44805;45.048;5.062;2023-04-22T08:21:01;99311.94;;;16.22;52.67
57376;BME280;44805;45.048;5.062;2023-04-22T08:23:28;99313.94;;;16.14;52.78
57376;BME280;44805;45.048;5.062;2023-04-22T08:25:53;99319.19;;;16.07;52.84
57376;BME280;44805;45.048;5.062;2023-04-22T08:28:19;99327.50;;;15.97;52.99
57376;BME280;44805;45.048;5.062;2023-04-22T08:33:22;99330.31;;;15.68;53.92
57376;BME280;44805;45.048;5.062;2023-04-22T08:35:53;99325.72;;;15.55;53.89
57376;BME280;44805;45.048;5.062;2023-04-22T08:38:32;99332.41;;;15.51;54.14
57376;BME280;44805;45.048;5.062;2023-04-22T08:46:22;99331.81;;;15.70;54.61
57376;BME280;44805;45.048;5.062;2023-04-22T08:48:49;99342.41;;;15.70;53.98
57376;BME280;44805;45.048;5.062;2023-04-22T08:51:15;99340.16;;;15.95;53.59
57376;BME280;44805;45.048;5.062;2023-04-22T08:56:14;99339.94;;;15.90;53.83
57376;BME280;44805;45.048;5.062;2023-04-22T08:58:39;99328.88;;;15.65;53.92
57376;BME280;44805;45.048;5.062;2023-04-22T09:01:06;99326.69;;;15.97;54.19
57376;BME280;44805;45.048;5.062;2023-04-22T09:06:10;99325.06;;;15.96;53.04
57376;BME280;44805;45.048;5.062;2023-04-22T09:08:38;99320.84;;;16.08;53.24
57376;BME280;44805;45.048;5.062;2023-04-22T09:11:14;99310.00;;;16.03;53.61
57376;BME280;44805;45.048;5.062;2023-04-22T09:13:39;99316.59;;;16.14;53.04
57376;BME280;44805;45.048;5.062;2023-04-22T09:16:06;99320.06;;;16.49;53.22
57376;BME280;44805;45.048;5.062;2023-04-22T09:18:39;99313.44;;;16.38;52.23
57376;BME280;44805;45.048;5.062;2023-04-22T09:21:05;99309.91;;;16.66;52.01
57376;BME280;44805;45.048;5.062;2023-04-22T09:23:30;99313.53;;;16.58;51.43
57376;BME280;44805;45.048;5.062;2023-04-22T09:25:55;99306.38;;;17.00;51.24
57376;BME280;44805;45.048;5.062;2023-04-22T09:28:21;99314.59;;;17.32;50.76
57376;BME280;44805;45.048;5.062;2023-04-22T09:33:19;99319.56;;;17.48;49.04
57376;BME280;44805;45.048;5.062;2023-04-22T09:38:23;99305.22;;;17.56;48.31
57376;BME280;44805;45.048;5.062;2023-04-22T09:40:54;99298.66;;;17.45;47.58
57376;BME280;44805;45.048;5.062;2023-04-22T09:43:21;99309.94;;;17.87;47.65
57376;BME280;44805;45.048;5.062;2023-04-22T09:45:46;99297.66;;;17.99;47.53
57376;BME280;44805;45.048;5.062;2023-04-22T09:48:13;99298.47;;;17.73;45.47
57376;BME280;44805;45.048;5.062;2023-04-22T09:50:39;99304.19;;;17.77;45.11
57376;BME280;44805;45.048;5.062;2023-04-22T09:53:05;99305.00;;;17.57;44.43
57376;BME280;44805;45.048;5.062;2023-04-22T09:55:33;99306.84;;;17.44;45.18
57376;BME280;44805;45.048;5.062;2023-04-22T09:58:03;99307.69;;;17.51;44.96
57376;BME280;44805;45.048;5.062;2023-04-22T10:00:29;99313.59;;;17.73;45.03
57376;BME280;44805;45.048;5.062;2023-04-22T10:02:54;99306.25;;;17.62;44.51
57376;BME280;44805;45.048;5.062;2023-04-22T10:05:20;99305.25;;;17.83;44.72
57376;BME280;44805;45.048;5.062;2023-04-22T10:07:45;99304.81;;;17.86;44.23
57376;BME280;44805;45.048;5.062;2023-04-22T10:10:11;99305.63;;;17.93;43.98
57376;BME280;44805;45.048;5.062;2023-04-22T10:12:39;99296.63;;;18.00;44.20
57376;BME280;44805;45.048;5.062;2023-04-22T10:17:38;99292.94;;;17.95;42.44
57376;BME280;44805;45.048;5.062;2023-04-22T10:20:05;99306.38;;;18.27;42.81
57376;BME280;44805;45.048;5.062;2023-04-22T10:22:32;99293.44;;;18.43;42.62
57376;BME280;44805;45.048;5.062;2023-04-22T10:24:58;99289.47;;;18.59;42.61
57376;BME280;44805;45.048;5.062;2023-04-22T10:29:54;99276.31;;;18.71;41.70
57376;BME280;44805;45.048;5.062;2023-04-22T10:34:46;99287.53;;;19.18;41.17
57376;BME280;44805;45.048;5.062;2023-04-22T10:37:12;99276.88;;;19.18;40.29
57376;BME280;44805;45.048;5.062;2023-04-22T10:39:39;99278.84;;;19.29;41.13
57376;BME280;44805;45.048;5.062;2023-04-22T10:42:09;99263.88;;;19.28;40.59
57376;BME280;44805;45.048;5.062;2023-04-22T10:49:45;99267.66;;;19.14;40.00
57376;BME280;44805;45.048;5.062;2023-04-22T10:57:20;99268.00;;;18.93;39.58
57376;BME280;44805;45.048;5.062;2023-04-22T10:59:52;99260.16;;;18.98;40.34
57376;BME280;44805;45.048;5.062;2023-04-22T11:02:18;99263.34;;;19.13;39.75
57376;BME280;44805;45.048;5.062;2023-04-22T11:04:44;99275.59;;;18.96;39.68
57376;BME280;44805;45.048;5.062;2023-04-22T11:09:39;99271.16;;;19.15;39.18
57376;BME280;44805;45.048;5.062;2023-04-22T11:14:48;99268.78;;;19.00;39.09
57376;BME280;44805;45.048;5.062;2023-04-22T11:17:14;99270.25;;;19.27;39.51
57376;BME280;44805;45.048;5.062;2023-04-22T11:19:42;99249.84;;;19.08;39.18
57376;BME280;44805;45.048;5.062;2023-04-22T11:22:07;99246.91;;;19.66;39.20
57376;BME280;44805;45.048;5.062;2023-04-22T11:24:34;99237.03;;;19.73;38.27
57376;BME280;44805;45.048;5.062;2023-04-22T11:26:59;99233.69;;;19.78;38.42
57376;BME280;44805;45.048;5.062;2023-04-22T11:29:25;99241.13;;;19.94;38.33
57376;BME280;44805;45.048;5.062;2023-04-22T11:31:59;99225.16;;;20.06;38.34
57376;BME280;44805;45.048;5.062;2023-04-22T11:34:24;99235.72;;;20.20;38.47
57376;BME280;44805;45.048;5.062;2023-04-22T11:36:50;99229.25;;;20.27;38.88
57376;BME280;44805;45.048;5.062;2023-04-22T11:39:15;99225.31;;;20.30;38.51
57376;BME280;44805;45.048;5.062;2023-04-22T11:41:42;99212.84;;;20.24;38.52
57376;BME280;44805;45.048;5.062;2023-04-22T11:44:07;99202.75;;;20.26;38.97
57376;BME280;44805;45.048;5.062;2023-04-22T13:50:59;99225.78;;;19.40;40.97
57376;BME280;44805;45.048;5.062;2023-04-22T13:53:24;99224.38;;;19.12;41.04
57376;BME280;44805;45.048;5.062;2023-04-22T13:55:50;99222.44;;;19.26;41.05
57376;BME280;44805;45.048;5.062;2023-04-22T13:58:15;99230.03;;;19.22;42.12
57376;BME280;44805;45.048;5.062;2023-04-22T14:00:40;99225.78;;;19.40;40.86
57376;BME280;44805;45.048;5.062;2023-04-22T14:03:06;99222.53;;;19.38;41.48
57376;BME280;44805;45.048;5.062;2023-04-22T14:05:31;99226.72;;;19.52;41.56
57376;BME280;44805;45.048;5.062;2023-04-22T14:07:57;99214.97;;;19.35;41.74
57376;BME280;44805;45.048;5.062;2023-04-22T14:10:22;99204.88;;;19.37;41.56
57376;BME280;44805;45.048;5.062;2023-04-22T14:12:48;99216.53;;;19.42;40.80
57376;BME280;44805;45.048;5.062;2023-04-22T14:15:13;99219.69;;;19.33;41.68
57376;BME280;44805;45.048;5.062;2023-04-22T14:17:39;99207.28;;;19.45;41.09
57376;BME280;44805;45.048;5.062;2023-04-22T14:20:04;99215.16;;;19.33;40.67
57376;BME280;44805;45.048;5.062;2023-04-22T14:22:46;99211.00;;;19.44;41.42
57376;BME280;44805;45.048;5.062;2023-04-22T14:25:11;99209.91;;;19.26;41.05
57376;BME280;44805;45.048;5.062;2023-04-22T14:27:36;99218.31;;;19.48;40.77
57376;BME280;44805;45.048;5.062;2023-04-22T14:30:02;99214.97;;;19.35;41.23
57376;BME280;44805;45.048;5.062;2023-04-22T14:32:28;99212.97;;;19.48;41.83
57376;BME280;44805;45.048;5.062;2023-04-22T14:34:54;99205.13;;;19.53;41.64
57376;BME280;44805;45.048;5.062;2023-04-22T14:37:23;99210.53;;;19.47;41.58
57376;BME280;44805;45.048;5.062;2023-04-22T14:39:48;99144.81;;;19.02;42.16
57376;BME280;44805;45.048;5.062;2023-04-22T14:42:13;99206.13;;;19.34;42.81
57376;BME280;44805;45.048;5.062;2023-04-22T14:44:40;99213.97;;;19.29;42.49
57376;BME280;44805;45.048;5.062;2023-04-22T14:47:05;99210.38;;;19.42;42.32
57376;BME280;44805;45.048;5.062;2023-04-22T14:49:31;99211.19;;;19.42;42.53
57376;BME280;44805;45.048;5.062;2023-04-22T14:51:56;99218.50;;;19.28;42.85
57376;BME280;44805;45.048;5.062;2023-04-22T14:54:24;99208.69;;;19.22;43.79
57376;BME280;44805;45.048;5.062;2023-04-22T14:56:50;99213.34;;;19.34;43.35
57376;BME280;44805;45.048;5.062;2023-04-22T14:59:18;99211.47;;;19.34;43.55
57376;BME280;44805;45.048;5.062;2023-04-22T15:01:43;99212.41;;;19.21;44.80
57376;BME280;44805;45.048;5.062;2023-04-22T15:04:12;99214.47;;;19.19;43.81
57376;BME280;44805;45.048;5.062;2023-04-22T15:06:39;99223.50;;;19.18;43.96
57376;BME280;44805;45.048;5.062;2023-04-22T15:09:07;99211.63;;;19.14;44.04
57376;BME280;44805;45.048;5.062;2023-04-22T15:11:32;99218.69;;;19.02;44.00
57376;BME280;44805;45.048;5.062;2023-04-22T15:13:57;99221.53;;;19.07;44.02
57376;BME280;44805;45.048;5.062;2023-04-22T15:16:23;99223.13;;;19.15;43.64
57376;BME280;44805;45.048;5.062;2023-04-22T15:18:48;99222.34;;;19.07;44.37
57376;BME280;44805;45.048;5.062;2023-04-22T15:21:13;99224.00;;;19.08;43.85
57376;BME280;44805;45.048;5.062;2023-04-22T15:23:39;99214.94;;;19.09;43.66
57376;BME280;44805;45.048;5.062;2023-04-22T15:26:04;99220.75;;;19.00;44.38
57376;BME280;44805;45.048;5.062;2023-04-22T15:28:30;99218.66;;;19.08;44.18
57376;BME280;44805;45.048;5.062;2023-04-22T15:30:55;99210.91;;;19.00;44.65
57376;BME280;44805;45.048;5.062;2023-04-22T15:33:20;99223.31;;;19.13;44.42
57376;BME280;44805;45.048;5.062;2023-04-22T15:35:46;99220.25;;;19.16;44.30
57376;BME280;44805;45.048;5.062;2023-04-22T15:38:14;99222.78;;;19.04;44.85
57376;BME280;44805;45.048;5.062;2023-04-22T15:40:42;99216.31;;;18.94;44.92
57376;BME280;44805;45.048;5.062;2023-04-22T15:43:07;99221.19;;;18.97;44.82
57376;BME280;44805;45.048;5.062;2023-04-22T15:45:33;99217.44;;;19.04;44.96
57376;BME280;44805;45.048;5.062;2023-04-22T15:47:59;99223.94;;;19.15;45.11
57376;BME280;44805;45.048;5.062;2023-04-22T15:50:24;99215.16;;;19.08;45.04
57376;BME280;44805;45.048;5.062;2023-04-22T15:52:54;99213.97;;;19.04;44.87
57376;BME280;44805;45.048;5.062;2023-04-22T15:55:20;99213.00;;;18.98;45.17
57376;BME280;44805;45.048;5.062;2023-04-22T15:57:45;99222.81;;;18.98;44.66
57376;BME280;44805;45.048;5.062;2023-04-22T16:00:11;99226.09;;;19.00;44.58
57376;BME280;44805;45.048;5.062;2023-04-22T16:02:37;99227.34;;;18.97;44.59
57376;BME280;44805;45.048;5.062;2023-04-22T16:05:02;99233.31;;;18.93;45.30
57376;BME280;44805;45.048;5.062;2023-04-22T16:11:06;99231.09;;;18.90;45.24
57376;BME280;44805;45.048;5.062;2023-04-22T16:13:31;99227.47;;;18.77;45.68
57376;BME280;44805;45.048;5.062;2023-04-22T16:15:56;99237.63;;;18.94;45.07
57376;BME280;44805;45.048;5.062;2023-04-22T16:18:22;99233.97;;;18.88;46.07
57376;BME280;44805;45.048;5.062;2023-04-22T16:20:47;99237.28;;;18.83;45.53
57376;BME280;44805;45.048;5.062;2023-04-22T16:23:13;99236.03;;;18.86;46.30
57376;BME280;44805;45.048;5.062;2023-04-22T16:25:38;99240.31;;;18.94;45.89
57376;BME280;44805;45.048;5.062;2023-04-22T16:28:03;99240.56;;;18.85;45.37
57376;BME280;44805;45.048;5.062;2023-04-22T16:30:28;99242.63;;;18.83;46.02
57376;BME280;44805;45.048;5.062;2023-04-22T16:32:54;99238.97;;;18.71;46.70
57376;BME280;44805;45.048;5.062;2023-04-22T16:35:19;99235.31;;;18.65;46.43
57376;BME280;44805;45.048;5.062;2023-04-22T16:40:41;99240.84;;;18.64;46.73
57376;BME280;44805;45.048;5.062;2023-04-22T16:43:06;99233.31;;;18.54;47.18
57376;BME280;44805;45.048;5.062;2023-04-22T16:45:33;99240.06;;;18.57;47.26
57376;BME280;44805;45.048;5.062;2023-04-22T16:47:58;99243.97;;;18.54;47.85
57376;BME280;44805;45.048;5.062;2023-04-22T16:50:23;99244.09;;;18.73;47.91
57376;BME280;44805;45.048;5.062;2023-04-22T16:52:50;99240.47;;;18.60;47.09
57376;BME280;44805;45.048;5.062;2023-04-22T16:55:16;99247.25;;;18.56;47.32
57376;BME280;44805;45.048;5.062;2023-04-22T16:57:41;99249.72;;;18.51;47.74
57376;BME280;44805;45.048;5.062;2023-04-22T17:00:11;99241.84;;;18.70;47.71
57376;BME280;44805;45.048;5.062;2023-04-22T17:02:37;99241.28;;;18.61;47.79
57376;BME280;44805;45.048;5.062;2023-04-22T17:05:02;99242.25;;;18.66;48.85
57376;BME280;44805;45.048;5.062;2023-04-22T17:10:31;99241.47;;;18.66;48.72
57376;BME280;44805;45.048;5.062;2023-04-22T17:12:57;99248.53;;;18.47;48.97
57376;BME280;44805;45.048;5.062;2023-04-22T17:15:22;99238.06;;;18.52;49.51